sensor_id;sensor_type;location;lat;lon;timestamp;P1;durP1;ratioP1;P2;durP2;ratioP2
54502;SDS011;40411;50.090;21.954;2022-08-02T00:00:17;15.75;;;9.88;;
54502;SDS011;40411;50.090;21.954;2022-08-02T00:03:02;14.20;;;9.15;;
54502;SDS011;40411;50.090;21.954;2022-08-02T00:05:28;19.38;;;9.25;;
54502;SDS011;40411;50.090;21.954;2022-08-02T00:07:54;15.27;;;8.63;;
54502;SDS011;40411;50.090;21.954;2022-08-02T00:10:19;15.27;;;8.95;;
54502;SDS011;40411;50.090;21.954;2022-08-02T00:12:45;14.82;;;8.82;;
54502;SDS011;40411;50.090;21.954;2022-08-02T00:15:11;13.15;;;9.30;;
54502;SDS011;40411;50.090;21.954;2022-08-02T00:17:38;15.45;;;8.75;;
54502;SDS011;40411;50.090;21.954;2022-08-02T00:20:04;19.95;;;9.18;;
54502;SDS011;40411;50.090;21.954;2022-08-02T00:22:30;14.82;;;8.63;;
54502;SDS011;40411;50.090;21.954;2022-08-02T00:24:56;17.33;;;8.80;;
54502;SDS011;40411;50.090;21.954;2022-08-02T00:27:22;16.35;;;9.60;;
54502;SDS011;40411;50.090;21.954;2022-08-02T00:29:49;15.30;;;9.27;;
54502;SDS011;40411;50.090;21.954;2022-08-02T00:32:16;14.27;;;9.00;;
54502;SDS011;40411;50.090;21.954;2022-08-02T00:34:42;24.30;;;9.25;;
54502;SDS011;40411;50.090;21.954;2022-08-02T00:37:08;16.00;;;9.85;;
54502;SDS011;40411;50.090;21.954;2022-08-02T00:39:34;13.60;;;9.13;;
54502;SDS011;40411;50.090;21.954;2022-08-02T00:42:01;19.67;;;9.38;;
54502;SDS011;40411;50.090;21.954;2022-08-02T00:44:27;18.50;;;9.73;;
54502;SDS011;40411;50.090;21.954;2022-08-02T00:46:53;17.45;;;10.95;;
54502;SDS011;40411;50.090;21.954;2022-08-02T00:49:19;14.48;;;8.75;;
54502;SDS011;40411;50.090;21.954;2022-08-02T00:51:45;12.85;;;8.60;;
54502;SDS011;40411;50.090;21.954;2022-08-02T00:54:11;18.10;;;7.93;;
54502;SDS011;40411;50.090;21.954;2022-08-02T00:56:37;16.65;;;8.52;;
54502;SDS011;40411;50.090;21.954;2022-08-02T00:59:03;14.48;;;8.25;;
54502;SDS011;40411;50.090;21.954;2022-08-02T01:01:29;13.68;;;8.50;;
54502;SDS011;40411;50.090;21.954;2022-08-02T01:04:08;13.75;;;8.77;;
54502;SDS011;40411;50.090;21.954;2022-08-02T01:06:36;17.08;;;8.75;;
54502;SDS011;40411;50.090;21.954;2022-08-02T01:09:03;13.32;;;8.20;;
54502;SDS011;40411;50.090;21.954;2022-08-02T01:11:31;13.70;;;8.73;;
54502;SDS011;40411;50.090;21.954;2022-08-02T01:14:00;12.82;;;7.75;;
54502;SDS011;40411;50.090;21.954;2022-08-02T01:16:30;13.48;;;7.97;;
54502;SDS011;40411;50.090;21.954;2022-08-02T01:19:03;17.80;;;7.90;;
54502;SDS011;40411;50.090;21.954;2022-08-02T01:25:02;15.23;;;8.05;;
54502;SDS011;40411;50.090;21.954;2022-08-02T01:30:32;13.35;;;8.30;;
54502;SDS011;40411;50.090;21.954;2022-08-02T01:33:00;16.08;;;9.02;;
54502;SDS011;40411;50.090;21.954;2022-08-02T01:35:29;13.13;;;8.27;;
54502;SDS011;40411;50.090;21.954;2022-08-02T01:38:05;13.63;;;8.88;;
54502;SDS011;40411;50.090;21.954;2022-08-02T01:40:35;14.98;;;8.65;;
54502;SDS011;40411;50.090;21.954;2022-08-02T01:43:04;12.27;;;8.70;;
54502;SDS011;40411;50.090;21.954;2022-08-02T01:45:32;13.05;;;8.70;;
54502;SDS011;40411;50.090;21.954;2022-08-02T01:47:59;12.25;;;8.60;;
54502;SDS011;40411;50.090;21.954;2022-08-02T01:50:31;14.98;;;8.68;;
54502;SDS011;40411;50.090;21.954;2022-08-02T01:53:00;14.38;;;8.43;;
54502;SDS011;40411;50.090;21.954;2022-08-02T01:58:09;16.05;;;9.20;;
54502;SDS011;40411;50.090;21.954;2022-08-02T02:00:39;14.85;;;8.90;;
54502;SDS011;40411;50.090;21.954;2022-08-02T02:03:08;13.98;;;8.48;;
54502;SDS011;40411;50.090;21.954;2022-08-02T02:05:38;13.00;;;8.68;;
54502;SDS011;40411;50.090;21.954;2022-08-02T02:08:05;19.08;;;10.27;;
54502;SDS011;40411;50.090;21.954;2022-08-02T02:10:32;13.93;;;9.52;;
54502;SDS011;40411;50.090;21.954;2022-08-02T02:13:07;21.25;;;9.60;;
54502;SDS011;40411;50.090;21.954;2022-08-02T02:15:39;15.50;;;9.68;;
54502;SDS011;40411;50.090;21.954;2022-08-02T02:18:07;12.93;;;8.38;;
54502;SDS011;40411;50.090;21.954;2022-08-02T02:20:37;12.95;;;8.40;;
54502;SDS011;40411;50.090;21.954;2022-08-02T02:23:03;14.50;;;8.27;;
54502;SDS011;40411;50.090;21.954;2022-08-02T02:25:29;13.45;;;9.23;;
54502;SDS011;40411;50.090;21.954;2022-08-02T02:28:11;20.67;;;10.55;;
54502;SDS011;40411;50.090;21.954;2022-08-02T02:30:42;18.73;;;9.52;;
54502;SDS011;40411;50.090;21.954;2022-08-02T02:33:13;19.60;;;10.60;;
54502;SDS011;40411;50.090;21.954;2022-08-02T02:35:42;17.48;;;9.63;;
54502;SDS011;40411;50.090;21.954;2022-08-02T02:38:12;25.40;;;10.10;;
54502;SDS011;40411;50.090;21.954;2022-08-02T02:40:40;18.13;;;9.00;;
54502;SDS011;40411;50.090;21.954;2022-08-02T02:43:07;20.05;;;11.00;;
54502;SDS011;40411;50.090;21.954;2022-08-02T02:45:35;16.90;;;10.57;;
54502;SDS011;40411;50.090;21.954;2022-08-02T02:48:03;17.90;;;11.95;;
54502;SDS011;40411;50.090;21.954;2022-08-02T02:50:31;20.80;;;12.35;;
54502;SDS011;40411;50.090;21.954;2022-08-02T02:52:58;20.08;;;12.75;;
54502;SDS011;40411;50.090;21.954;2022-08-02T02:55:25;20.38;;;12.65;;
54502;SDS011;40411;50.090;21.954;2022-08-02T02:57:52;21.15;;;14.55;;
54502;SDS011;40411;50.090;21.954;2022-08-02T03:00:19;18.95;;;12.82;;
54502;SDS011;40411;50.090;21.954;2022-08-02T03:03:06;17.75;;;11.95;;
54502;SDS011;40411;50.090;21.954;2022-08-02T03:05:33;16.00;;;11.70;;
54502;SDS011;40411;50.090;21.954;2022-08-02T03:08:00;16.88;;;11.43;;
54502;SDS011;40411;50.090;21.954;2022-08-02T03:10:26;18.58;;;12.20;;
54502;SDS011;40411;50.090;21.954;2022-08-02T03:12:52;15.85;;;12.02;;
54502;SDS011;40411;50.090;21.954;2022-08-02T03:15:19;14.45;;;11.23;;
54502;SDS011;40411;50.090;21.954;2022-08-02T03:17:46;16.38;;;11.13;;
54502;SDS011;40411;50.090;21.954;2022-08-02T03:20:16;19.02;;;10.60;;
54502;SDS011;40411;50.090;21.954;2022-08-02T03:22:44;14.63;;;10.95;;
54502;SDS011;40411;50.090;21.954;2022-08-02T03:25:11;15.15;;;10.75;;
54502;SDS011;40411;50.090;21.954;2022-08-02T03:27:38;47.92;;;22.48;;
54502;SDS011;40411;50.090;21.954;2022-08-02T03:30:05;52.47;;;28.60;;
54502;SDS011;40411;50.090;21.954;2022-08-02T03:32:33;44.45;;;27.85;;
54502;SDS011;40411;50.090;21.954;2022-08-02T03:35:00;67.13;;;37.90;;
54502;SDS011;40411;50.090;21.954;2022-08-02T03:37:27;49.95;;;30.77;;
54502;SDS011;40411;50.090;21.954;2022-08-02T03:39:55;39.28;;;23.70;;
54502;SDS011;40411;50.090;21.954;2022-08-02T03:42:22;31.85;;;22.00;;
54502;SDS011;40411;50.090;21.954;2022-08-02T03:44:49;29.52;;;20.45;;
54502;SDS011;40411;50.090;21.954;2022-08-02T03:47:17;32.75;;;19.33;;
54502;SDS011;40411;50.090;21.954;2022-08-02T03:49:44;28.17;;;16.70;;
54502;SDS011;40411;50.090;21.954;2022-08-02T03:52:10;26.00;;;17.98;;
54502;SDS011;40411;50.090;21.954;2022-08-02T03:54:37;22.58;;;15.05;;
54502;SDS011;40411;50.090;21.954;2022-08-02T03:57:04;20.00;;;14.48;;
54502;SDS011;40411;50.090;21.954;2022-08-02T03:59:41;25.08;;;18.52;;
54502;SDS011;40411;50.090;21.954;2022-08-02T04:02:09;22.85;;;14.02;;
54502;SDS011;40411;50.090;21.954;2022-08-02T04:04:35;19.95;;;13.45;;
54502;SDS011;40411;50.090;21.954;2022-08-02T04:07:02;20.08;;;12.68;;
54502;SDS011;40411;50.090;21.954;2022-08-02T04:09:28;20.33;;;13.80;;
54502;SDS011;40411;50.090;21.954;2022-08-02T04:11:54;20.92;;;13.13;;
54502;SDS011;40411;50.090;21.954;2022-08-02T04:14:20;15.75;;;12.10;;
54502;SDS011;40411;50.090;21.954;2022-08-02T04:16:53;19.27;;;12.40;;
54502;SDS011;40411;50.090;21.954;2022-08-02T04:21:56;17.10;;;11.73;;
54502;SDS011;40411;50.090;21.954;2022-08-02T04:24:26;19.27;;;11.20;;
54502;SDS011;40411;50.090;21.954;2022-08-02T04:26:56;16.83;;;11.43;;
54502;SDS011;40411;50.090;21.954;2022-08-02T04:29:24;17.83;;;10.90;;
54502;SDS011;40411;50.090;21.954;2022-08-02T04:31:52;20.50;;;12.45;;
54502;SDS011;40411;50.090;21.954;2022-08-02T04:34:19;23.38;;;10.98;;
54502;SDS011;40411;50.090;21.954;2022-08-02T04:36:45;19.67;;;11.10;;
54502;SDS011;40411;50.090;21.954;2022-08-02T04:39:11;19.65;;;11.95;;
54502;SDS011;40411;50.090;21.954;2022-08-02T04:41:38;15.35;;;10.75;;
54502;SDS011;40411;50.090;21.954;2022-08-02T04:44:06;18.23;;;10.98;;
54502;SDS011;40411;50.090;21.954;2022-08-02T04:46:32;12.55;;;9.05;;
54502;SDS011;40411;50.090;21.954;2022-08-02T04:48:59;16.38;;;9.80;;
54502;SDS011;40411;50.090;21.954;2022-08-02T04:51:24;16.17;;;9.52;;
54502;SDS011;40411;50.090;21.954;2022-08-02T04:53:50;22.10;;;9.75;;
54502;SDS011;40411;50.090;21.954;2022-08-02T04:56:16;15.95;;;9.60;;
54502;SDS011;40411;50.090;21.954;2022-08-02T04:58:42;13.90;;;10.45;;
54502;SDS011;40411;50.090;21.954;2022-08-02T05:01:08;16.02;;;9.63;;
54502;SDS011;40411;50.090;21.954;2022-08-02T05:03:34;14.13;;;10.13;;
54502;SDS011;40411;50.090;21.954;2022-08-02T05:06:00;15.05;;;9.43;;
54502;SDS011;40411;50.090;21.954;2022-08-02T05:08:25;13.43;;;9.05;;
54502;SDS011;40411;50.090;21.954;2022-08-02T05:10:52;17.23;;;9.60;;
54502;SDS011;40411;50.090;21.954;2022-08-02T05:13:18;15.65;;;11.35;;
54502;SDS011;40411;50.090;21.954;2022-08-02T05:15:46;14.68;;;10.73;;
54502;SDS011;40411;50.090;21.954;2022-08-02T05:18:13;18.25;;;12.13;;
54502;SDS011;40411;50.090;21.954;2022-08-02T05:20:39;17.80;;;11.30;;
54502;SDS011;40411;50.090;21.954;2022-08-02T05:23:05;19.77;;;13.15;;
54502;SDS011;40411;50.090;21.954;2022-08-02T05:25:31;16.23;;;11.52;;
54502;SDS011;40411;50.090;21.954;2022-08-02T05:27:56;19.60;;;11.32;;
54502;SDS011;40411;50.090;21.954;2022-08-02T05:30:22;14.30;;;11.00;;
54502;SDS011;40411;50.090;21.954;2022-08-02T05:32:49;14.75;;;11.02;;
54502;SDS011;40411;50.090;21.954;2022-08-02T05:35:19;15.65;;;11.60;;
54502;SDS011;40411;50.090;21.954;2022-08-02T05:37:46;17.35;;;12.02;;
54502;SDS011;40411;50.090;21.954;2022-08-02T05:40:13;16.38;;;12.88;;
54502;SDS011;40411;50.090;21.954;2022-08-02T05:42:40;16.65;;;12.35;;
54502;SDS011;40411;50.090;21.954;2022-08-02T05:45:06;16.92;;;13.30;;
54502;SDS011;40411;50.090;21.954;2022-08-02T05:47:33;17.20;;;12.65;;
54502;SDS011;40411;50.090;21.954;2022-08-02T05:49:59;21.13;;;12.93;;
54502;SDS011;40411;50.090;21.954;2022-08-02T05:52:26;18.05;;;12.95;;
54502;SDS011;40411;50.090;21.954;2022-08-02T05:55:07;16.70;;;13.05;;
54502;SDS011;40411;50.090;21.954;2022-08-02T06:00:30;15.73;;;12.50;;
54502;SDS011;40411;50.090;21.954;2022-08-02T06:05:31;17.33;;;12.75;;
54502;SDS011;40411;50.090;21.954;2022-08-02T06:07:59;18.40;;;13.38;;
54502;SDS011;40411;50.090;21.954;2022-08-02T06:10:27;24.20;;;17.30;;
54502;SDS011;40411;50.090;21.954;2022-08-02T06:15:34;18.05;;;13.40;;
54502;SDS011;40411;50.090;21.954;2022-08-02T06:18:02;20.08;;;13.10;;
54502;SDS011;40411;50.090;21.954;2022-08-02T06:20:29;20.10;;;12.63;;
54502;SDS011;40411;50.090;21.954;2022-08-02T06:23:03;17.98;;;12.07;;
54502;SDS011;40411;50.090;21.954;2022-08-02T06:25:31;18.52;;;13.10;;
54502;SDS011;40411;50.090;21.954;2022-08-02T06:27:59;16.13;;;12.10;;
54502;SDS011;40411;50.090;21.954;2022-08-02T06:30:27;19.52;;;11.93;;
54502;SDS011;40411;50.090;21.954;2022-08-02T06:32:53;15.27;;;11.48;;
54502;SDS011;40411;50.090;21.954;2022-08-02T06:35:19;17.58;;;12.02;;
54502;SDS011;40411;50.090;21.954;2022-08-02T06:45:31;18.08;;;11.18;;
54502;SDS011;40411;50.090;21.954;2022-08-02T06:47:58;14.98;;;10.88;;
54502;SDS011;40411;50.090;21.954;2022-08-02T06:50:24;12.98;;;9.82;;
54502;SDS011;40411;50.090;21.954;2022-08-02T06:52:51;14.88;;;10.07;;
54502;SDS011;40411;50.090;21.954;2022-08-02T06:55:17;14.30;;;10.40;;
54502;SDS011;40411;50.090;21.954;2022-08-02T06:57:43;15.00;;;10.05;;
54502;SDS011;40411;50.090;21.954;2022-08-02T07:00:09;15.20;;;9.95;;
54502;SDS011;40411;50.090;21.954;2022-08-02T07:02:37;21.80;;;9.70;;
54502;SDS011;40411;50.090;21.954;2022-08-02T07:05:04;14.43;;;10.05;;
54502;SDS011;40411;50.090;21.954;2022-08-02T07:07:31;12.48;;;8.95;;
54502;SDS011;40411;50.090;21.954;2022-08-02T07:09:58;11.77;;;8.95;;
54502;SDS011;40411;50.090;21.954;2022-08-02T07:12:24;14.52;;;9.85;;
54502;SDS011;40411;50.090;21.954;2022-08-02T07:14:50;16.00;;;10.38;;
54502;SDS011;40411;50.090;21.954;2022-08-02T07:17:17;14.27;;;10.68;;
54502;SDS011;40411;50.090;21.954;2022-08-02T07:19:43;14.00;;;11.13;;
54502;SDS011;40411;50.090;21.954;2022-08-02T07:22:09;16.42;;;10.77;;
54502;SDS011;40411;50.090;21.954;2022-08-02T07:24:37;14.90;;;10.55;;
54502;SDS011;40411;50.090;21.954;2022-08-02T07:27:04;14.48;;;11.00;;
54502;SDS011;40411;50.090;21.954;2022-08-02T07:29:30;14.13;;;10.45;;
54502;SDS011;40411;50.090;21.954;2022-08-02T07:31:57;15.98;;;10.50;;
54502;SDS011;40411;50.090;21.954;2022-08-02T07:34:23;15.35;;;10.02;;
54502;SDS011;40411;50.090;21.954;2022-08-02T07:36:48;16.13;;;9.63;;
54502;SDS011;40411;50.090;21.954;2022-08-02T07:39:15;12.35;;;9.15;;
54502;SDS011;40411;50.090;21.954;2022-08-02T07:41:40;17.63;;;9.80;;
54502;SDS011;40411;50.090;21.954;2022-08-02T07:44:06;13.27;;;9.10;;
54502;SDS011;40411;50.090;21.954;2022-08-02T07:46:32;10.93;;;8.38;;
54502;SDS011;40411;50.090;21.954;2022-08-02T07:48:58;12.52;;;8.95;;
54502;SDS011;40411;50.090;21.954;2022-08-02T07:51:24;10.07;;;8.20;;
54502;SDS011;40411;50.090;21.954;2022-08-02T07:53:50;13.82;;;8.32;;
54502;SDS011;40411;50.090;21.954;2022-08-02T07:56:15;16.88;;;8.43;;
54502;SDS011;40411;50.090;21.954;2022-08-02T07:58:41;12.52;;;8.40;;
54502;SDS011;40411;50.090;21.954;2022-08-02T08:01:07;18.33;;;9.40;;
54502;SDS011;40411;50.090;21.954;2022-08-02T08:03:34;15.98;;;9.43;;
54502;SDS011;40411;50.090;21.954;2022-08-02T08:06:00;15.35;;;8.95;;
54502;SDS011;40411;50.090;21.954;2022-08-02T08:08:26;11.65;;;9.00;;
54502;SDS011;40411;50.090;21.954;2022-08-02T08:10:52;13.70;;;9.40;;
54502;SDS011;40411;50.090;21.954;2022-08-02T08:13:18;11.98;;;9.05;;
54502;SDS011;40411;50.090;21.954;2022-08-02T08:15:44;11.98;;;8.57;;
54502;SDS011;40411;50.090;21.954;2022-08-02T08:18:09;15.30;;;9.48;;
54502;SDS011;40411;50.090;21.954;2022-08-02T08:20:36;11.63;;;9.40;;
54502;SDS011;40411;50.090;21.954;2022-08-02T08:23:03;11.60;;;10.13;;
54502;SDS011;40411;50.090;21.954;2022-08-02T08:25:29;13.10;;;9.40;;
54502;SDS011;40411;50.090;21.954;2022-08-02T08:27:54;12.65;;;9.43;;
54502;SDS011;40411;50.090;21.954;2022-08-02T08:30:20;13.00;;;9.52;;
54502;SDS011;40411;50.090;21.954;2022-08-02T08:32:48;13.43;;;9.57;;
54502;SDS011;40411;50.090;21.954;2022-08-02T08:35:14;13.65;;;9.32;;
54502;SDS011;40411;50.090;21.954;2022-08-02T08:37:40;15.27;;;10.73;;
54502;SDS011;40411;50.090;21.954;2022-08-02T08:40:07;14.20;;;10.80;;
54502;SDS011;40411;50.090;21.954;2022-08-02T08:42:35;11.75;;;9.57;;
54502;SDS011;40411;50.090;21.954;2022-08-02T08:45:03;15.60;;;10.27;;
54502;SDS011;40411;50.090;21.954;2022-08-02T08:47:36;11.05;;;9.85;;
54502;SDS011;40411;50.090;21.954;2022-08-02T08:52:34;12.13;;;9.65;;
54502;SDS011;40411;50.090;21.954;2022-08-02T08:55:06;14.10;;;9.85;;
54502;SDS011;40411;50.090;21.954;2022-08-02T08:57:34;17.30;;;11.13;;
54502;SDS011;40411;50.090;21.954;2022-08-02T09:00:05;13.88;;;11.10;;
54502;SDS011;40411;50.090;21.954;2022-08-02T09:02:33;13.48;;;10.00;;
54502;SDS011;40411;50.090;21.954;2022-08-02T09:05:00;14.82;;;11.15;;
54502;SDS011;40411;50.090;21.954;2022-08-02T09:07:26;15.20;;;11.15;;
54502;SDS011;40411;50.090;21.954;2022-08-02T09:09:53;16.33;;;11.40;;
54502;SDS011;40411;50.090;21.954;2022-08-02T09:12:19;13.57;;;11.68;;
54502;SDS011;40411;50.090;21.954;2022-08-02T09:14:49;14.85;;;11.65;;
54502;SDS011;40411;50.090;21.954;2022-08-02T09:17:16;16.63;;;11.43;;
54502;SDS011;40411;50.090;21.954;2022-08-02T09:19:42;13.32;;;11.10;;
54502;SDS011;40411;50.090;21.954;2022-08-02T09:22:09;12.88;;;10.40;;
54502;SDS011;40411;50.090;21.954;2022-08-02T09:24:49;16.05;;;10.30;;
54502;SDS011;40411;50.090;21.954;2022-08-02T09:27:20;15.55;;;10.23;;
54502;SDS011;40411;50.090;21.954;2022-08-02T09:29:47;12.05;;;10.13;;
54502;SDS011;40411;50.090;21.954;2022-08-02T09:32:14;12.27;;;10.55;;
54502;SDS011;40411;50.090;21.954;2022-08-02T09:34:44;11.90;;;10.02;;
54502;SDS011;40411;50.090;21.954;2022-08-02T09:37:28;12.50;;;9.82;;
54502;SDS011;40411;50.090;21.954;2022-08-02T09:39:55;12.50;;;9.23;;
54502;SDS011;40411;50.090;21.954;2022-08-02T09:42:27;13.40;;;9.35;;
54502;SDS011;40411;50.090;21.954;2022-08-02T09:44:57;12.10;;;8.85;;
54502;SDS011;40411;50.090;21.954;2022-08-02T09:47:25;14.65;;;9.00;;
54502;SDS011;40411;50.090;21.954;2022-08-02T09:49:55;10.45;;;8.02;;
54502;SDS011;40411;50.090;21.954;2022-08-02T09:52:25;10.25;;;7.30;;
54502;SDS011;40411;50.090;21.954;2022-08-02T09:55:01;9.10;;;7.75;;
54502;SDS011;40411;50.090;21.954;2022-08-02T09:57:30;10.23;;;7.07;;
54502;SDS011;40411;50.090;21.954;2022-08-02T10:00:05;11.40;;;6.72;;
54502;SDS011;40411;50.090;21.954;2022-08-02T10:02:37;10.90;;;7.20;;
54502;SDS011;40411;50.090;21.954;2022-08-02T10:05:04;9.25;;;6.63;;
54502;SDS011;40411;50.090;21.954;2022-08-02T10:07:30;8.02;;;6.72;;
54502;SDS011;40411;50.090;21.954;2022-08-02T10:09:56;11.32;;;7.13;;
54502;SDS011;40411;50.090;21.954;2022-08-02T10:12:22;8.98;;;6.55;;
54502;SDS011;40411;50.090;21.954;2022-08-02T10:14:49;13.85;;;7.55;;
54502;SDS011;40411;50.090;21.954;2022-08-02T10:17:17;14.55;;;8.07;;
54502;SDS011;40411;50.090;21.954;2022-08-02T10:19:44;14.20;;;9.60;;
54502;SDS011;40411;50.090;21.954;2022-08-02T10:22:11;14.00;;;10.30;;
54502;SDS011;40411;50.090;21.954;2022-08-02T10:24:38;14.95;;;10.35;;
54502;SDS011;40411;50.090;21.954;2022-08-02T10:27:06;19.15;;;12.38;;
54502;SDS011;40411;50.090;21.954;2022-08-02T10:29:42;18.52;;;9.82;;
54502;SDS011;40411;50.090;21.954;2022-08-02T10:32:20;17.88;;;11.27;;
54502;SDS011;40411;50.090;21.954;2022-08-02T10:34:52;13.73;;;9.98;;
54502;SDS011;40411;50.090;21.954;2022-08-02T10:37:21;10.60;;;8.55;;
54502;SDS011;40411;50.090;21.954;2022-08-02T10:39:55;9.75;;;7.50;;
54502;SDS011;40411;50.090;21.954;2022-08-02T10:45:13;10.10;;;7.70;;
54502;SDS011;40411;50.090;21.954;2022-08-02T10:47:58;10.32;;;8.05;;
54502;SDS011;40411;50.090;21.954;2022-08-02T10:55:53;12.80;;;8.07;;
54502;SDS011;40411;50.090;21.954;2022-08-02T10:58:23;10.27;;;7.93;;
54502;SDS011;40411;50.090;21.954;2022-08-02T11:00:54;11.52;;;8.32;;
54502;SDS011;40411;50.090;21.954;2022-08-02T11:06:14;9.13;;;7.32;;
54502;SDS011;40411;50.090;21.954;2022-08-02T11:08:39;10.02;;;7.35;;
54502;SDS011;40411;50.090;21.954;2022-08-02T11:19:24;12.40;;;9.38;;
54502;SDS011;40411;50.090;21.954;2022-08-02T11:22:10;11.35;;;8.85;;
54502;SDS011;40411;50.090;21.954;2022-08-02T11:24:44;12.07;;;8.23;;
54502;SDS011;40411;50.090;21.954;2022-08-02T11:27:18;11.52;;;8.90;;
54502;SDS011;40411;50.090;21.954;2022-08-02T11:29:46;10.95;;;8.48;;
54502;SDS011;40411;50.090;21.954;2022-08-02T11:32:16;11.13;;;9.65;;
54502;SDS011;40411;50.090;21.954;2022-08-02T11:34:45;10.00;;;8.68;;
54502;SDS011;40411;50.090;21.954;2022-08-02T11:37:26;12.25;;;10.77;;
54502;SDS011;40411;50.090;21.954;2022-08-02T11:39:53;17.10;;;10.60;;
54502;SDS011;40411;50.090;21.954;2022-08-02T11:42:19;12.27;;;10.35;;
54502;SDS011;40411;50.090;21.954;2022-08-02T11:44:45;13.02;;;11.63;;
54502;SDS011;40411;50.090;21.954;2022-08-02T11:47:13;12.57;;;11.00;;
54502;SDS011;40411;50.090;21.954;2022-08-02T11:49:39;15.15;;;12.20;;
54502;SDS011;40411;50.090;21.954;2022-08-02T11:52:06;16.05;;;12.68;;
54502;SDS011;40411;50.090;21.954;2022-08-02T11:54:36;14.60;;;12.98;;
54502;SDS011;40411;50.090;21.954;2022-08-02T11:57:10;15.90;;;12.98;;
54502;SDS011;40411;50.090;21.954;2022-08-02T11:59:47;14.95;;;12.43;;
54502;SDS011;40411;50.090;21.954;2022-08-02T12:02:14;15.43;;;12.45;;
54502;SDS011;40411;50.090;21.954;2022-08-02T12:04:41;16.52;;;13.30;;
54502;SDS011;40411;50.090;21.954;2022-08-02T12:07:08;20.90;;;13.15;;
54502;SDS011;40411;50.090;21.954;2022-08-02T12:09:34;14.90;;;13.00;;
54502;SDS011;40411;50.090;21.954;2022-08-02T12:12:01;18.75;;;13.43;;
54502;SDS011;40411;50.090;21.954;2022-08-02T12:14:28;16.60;;;14.55;;
54502;SDS011;40411;50.090;21.954;2022-08-02T12:16:55;15.63;;;13.02;;
54502;SDS011;40411;50.090;21.954;2022-08-02T12:19:41;16.08;;;13.35;;
54502;SDS011;40411;50.090;21.954;2022-08-02T12:24:46;13.80;;;12.30;;
54502;SDS011;40411;50.090;21.954;2022-08-02T12:27:35;17.05;;;13.80;;
54502;SDS011;40411;50.090;21.954;2022-08-02T12:30:06;15.20;;;13.60;;
54502;SDS011;40411;50.090;21.954;2022-08-02T12:32:34;15.07;;;13.13;;
54502;SDS011;40411;50.090;21.954;2022-08-02T12:35:01;14.82;;;12.60;;
54502;SDS011;40411;50.090;21.954;2022-08-02T12:37:27;17.45;;;13.20;;
54502;SDS011;40411;50.090;21.954;2022-08-02T12:39:53;13.32;;;11.50;;
54502;SDS011;40411;50.090;21.954;2022-08-02T12:42:19;13.25;;;11.82;;
54502;SDS011;40411;50.090;21.954;2022-08-02T12:44:52;13.75;;;12.32;;
54502;SDS011;40411;50.090;21.954;2022-08-02T12:47:22;16.00;;;11.57;;
54502;SDS011;40411;50.090;21.954;2022-08-02T12:50:09;12.63;;;11.18;;
54502;SDS011;40411;50.090;21.954;2022-08-02T12:52:47;15.30;;;10.93;;
54502;SDS011;40411;50.090;21.954;2022-08-02T12:55:17;13.02;;;11.27;;
54502;SDS011;40411;50.090;21.954;2022-08-02T12:57:52;12.15;;;10.85;;
54502;SDS011;40411;50.090;21.954;2022-08-02T13:00:36;13.63;;;11.55;;
54502;SDS011;40411;50.090;21.954;2022-08-02T13:03:03;12.48;;;10.65;;
54502;SDS011;40411;50.090;21.954;2022-08-02T13:05:30;12.15;;;10.95;;
54502;SDS011;40411;50.090;21.954;2022-08-02T13:07:59;12.27;;;10.57;;
54502;SDS011;40411;50.090;21.954;2022-08-02T13:10:25;11.93;;;9.98;;
54502;SDS011;40411;50.090;21.954;2022-08-02T13:12:52;11.75;;;10.55;;
54502;SDS011;40411;50.090;21.954;2022-08-02T13:15:19;13.85;;;11.35;;
54502;SDS011;40411;50.090;21.954;2022-08-02T13:17:46;12.88;;;10.27;;
54502;SDS011;40411;50.090;21.954;2022-08-02T13:20:12;14.02;;;10.80;;
54502;SDS011;40411;50.090;21.954;2022-08-02T13:22:39;11.60;;;9.90;;
54502;SDS011;40411;50.090;21.954;2022-08-02T13:25:06;12.15;;;10.20;;
54502;SDS011;40411;50.090;21.954;2022-08-02T13:27:32;12.70;;;11.40;;
54502;SDS011;40411;50.090;21.954;2022-08-02T13:29:58;19.02;;;10.95;;
54502;SDS011;40411;50.090;21.954;2022-08-02T13:32:25;14.38;;;11.60;;
54502;SDS011;40411;50.090;21.954;2022-08-02T13:34:54;12.50;;;10.38;;
54502;SDS011;40411;50.090;21.954;2022-08-02T13:37:20;11.82;;;10.38;;
54502;SDS011;40411;50.090;21.954;2022-08-02T13:39:46;13.82;;;10.40;;
54502;SDS011;40411;50.090;21.954;2022-08-02T13:42:13;13.07;;;10.20;;
54502;SDS011;40411;50.090;21.954;2022-08-02T13:44:38;12.68;;;9.82;;
54502;SDS011;40411;50.090;21.954;2022-08-02T13:47:04;11.52;;;9.98;;
54502;SDS011;40411;50.090;21.954;2022-08-02T13:49:31;11.45;;;9.55;;
54502;SDS011;40411;50.090;21.954;2022-08-02T13:51:56;12.30;;;10.55;;
54502;SDS011;40411;50.090;21.954;2022-08-02T13:54:22;14.60;;;10.90;;
54502;SDS011;40411;50.090;21.954;2022-08-02T13:56:48;16.02;;;10.55;;
54502;SDS011;40411;50.090;21.954;2022-08-02T13:59:14;13.85;;;10.93;;
54502;SDS011;40411;50.090;21.954;2022-08-02T14:01:39;13.55;;;11.10;;
54502;SDS011;40411;50.090;21.954;2022-08-02T14:04:05;12.65;;;10.43;;
54502;SDS011;40411;50.090;21.954;2022-08-02T14:06:31;12.48;;;11.18;;
54502;SDS011;40411;50.090;21.954;2022-08-02T14:08:58;14.18;;;11.85;;
54502;SDS011;40411;50.090;21.954;2022-08-02T14:11:23;13.55;;;11.98;;
54502;SDS011;40411;50.090;21.954;2022-08-02T14:13:49;13.00;;;11.55;;
54502;SDS011;40411;50.090;21.954;2022-08-02T14:16:15;13.88;;;12.10;;
54502;SDS011;40411;50.090;21.954;2022-08-02T14:18:41;13.13;;;11.13;;
54502;SDS011;40411;50.090;21.954;2022-08-02T14:21:07;14.27;;;11.40;;
54502;SDS011;40411;50.090;21.954;2022-08-02T14:23:32;12.88;;;11.48;;
54502;SDS011;40411;50.090;21.954;2022-08-02T14:25:58;17.65;;;12.13;;
54502;SDS011;40411;50.090;21.954;2022-08-02T14:28:24;16.65;;;12.20;;
54502;SDS011;40411;50.090;21.954;2022-08-02T14:30:50;14.98;;;12.02;;
54502;SDS011;40411;50.090;21.954;2022-08-02T14:33:16;14.10;;;12.60;;
54502;SDS011;40411;50.090;21.954;2022-08-02T14:35:43;16.48;;;11.75;;
54502;SDS011;40411;50.090;21.954;2022-08-02T14:38:09;15.35;;;11.85;;
54502;SDS011;40411;50.090;21.954;2022-08-02T14:40:35;13.98;;;12.00;;
54502;SDS011;40411;50.090;21.954;2022-08-02T14:43:01;15.52;;;13.07;;
54502;SDS011;40411;50.090;21.954;2022-08-02T14:45:28;14.68;;;12.07;;
54502;SDS011;40411;50.090;21.954;2022-08-02T14:47:55;14.15;;;12.27;;
54502;SDS011;40411;50.090;21.954;2022-08-02T14:50:21;16.23;;;12.57;;
54502;SDS011;40411;50.090;21.954;2022-08-02T14:52:47;15.65;;;13.10;;
54502;SDS011;40411;50.090;21.954;2022-08-02T14:55:14;16.23;;;14.05;;
54502;SDS011;40411;50.090;21.954;2022-08-02T14:57:41;18.80;;;13.88;;
54502;SDS011;40411;50.090;21.954;2022-08-02T15:00:07;15.60;;;14.00;;
54502;SDS011;40411;50.090;21.954;2022-08-02T15:02:34;15.65;;;13.85;;
54502;SDS011;40411;50.090;21.954;2022-08-02T15:05:00;14.68;;;12.60;;
54502;SDS011;40411;50.090;21.954;2022-08-02T15:07:26;17.98;;;13.63;;
54502;SDS011;40411;50.090;21.954;2022-08-02T15:09:52;20.58;;;14.13;;